Strona główna
METAR-TAF:

METAR-TAF

Lotnisko :

Port lotniczy Makasar-Sultan Hasanuddin

Makasar, Celebes Południowy, Indonezja

Szerokość geograficzna: 05-04S, Długość geograficzna: 119-33E, wysokość: 14 m

Aktualna obserwacja pogody

Raport powstał 32 minut temu, godzina 21:00 UTC
Wiatr 4 kt od wschodnio-południowy wschód
Temperatura 23°C
Wilgotność 100%
Ciśnienie 1011 hPa
Widzialność: 8000 m
Mało chmury na wysokości 1900 ft

METAR: WAAA 102100Z 11004KT 8000 FEW019 23/23 Q1011 NOSIG

czas: 04:32 (21:32 UTC)

Prognoza

Raport powstał 4 godziny i 32 minut temu, godzina 17:00 UTC
Prognoza ważna od 10 godzina 18 UTC do 12 godzina 00 UTC
Wiatr 4 kt od wschód
Widzialność: 8000 m
Mało chmury na wysokości 1900 ft
Stopniowe zmiany
od 11 godzina 02 UTC do 11 godzina 04 UTC
Wiatr 8 kt od zachodnio-północny zachód

TAF: WAAA 101700Z 1018/1200 10004KT 8000 FEW019 BECMG 1102/1104 30008KT

Obserwacja i prognoza pogody dla ponad 4000 lotnisk (raport METAR i TAF).

Dostępne stacje oznaczono żółtymi i czerwonymi punktami na mapie.

Najedź kursorem aby zobaczyć nazwę stacji.

Kliknij aby zobaczyć obserwacje i prognozy pogody.

Aby zmienić mapę: kliknij na zielony przycisk z czarnym krzyżykiem, aby powiększyć; na zielony przycisk z myślnikiem, aby pomniejszyć; na zielone strzałki, aby przejść do map sąsiednich.


METAR-TAF: